Prince Albert Glass Field
CYPA : now visible

Airfield :











YOU CAN JOIN US ON...

 
LOGIN :

Register | Disclaimer

   EN    FR    IT 

 









Legend :    VFR   Marginal VFR   IFR   Intensive IFR   Very Intensive IFR
Visi :
Ceiling :
>= 8 km
>= 3000ft
5 to 8 km
1000 to 3000 ft
1500m to 5 km
500 to 1000 ft
800 to 1500m
200 to 500 ft
< 800m
< 200 ft
Symbols :   Thunderstorms  Fog  Heavy snow  Heavy precipitations  Wind > 20 kt






- Airport Elevation : 1405 ft
- IATA code : YPA


CYPA - Prince Albert Glass Field

CURRENT METAR :
  • 101500Z 27013G20KT 15SM FEW100 FEW270 18/10 A2970 RMK AC1CI1 AC TR SLP065 DENSITY ALT 2400FT

EXPIRED METARs :
  • 101400Z 28014G21KT 15SM FEW100 FEW270 16/09 A2971 RMK AC1CI1 AC TR CI TR SLP070 DENSITY ALT 2100FT
  • 101300Z 26011G17KT 15SM FEW100 14/08 A2971 RMK AC1 ACC ASOCTD SLP068 DENSITY ALT 1900FT

TAF TAF CYPA
Valid from the 10 at 14:00 until the 11 at 02:00 UTC


101338Z 1014/1102 27012G22KT P6SM FEW080
BECMG 1016/1018 29018G28KT RMK NXT FCST BY 101900Z
CZWG FIR / North America



MET'MAP, your aeronautical weather chart ! - Copyright ORBIFLY December 2007 - Disclaimer

ORBIFLY MET'MAP TEAM :

Programming & Development : Alexandra Zaïnal
Concept & original design : Baudouin d'Aumeries
Assistance for programming : Marc-Olivier Méhu
Technical & hardware support : Manuel Goepfert

Contact : metmap@orbifly.com




SOURCES & CREDITS :

   NOAA       Earth
Advisory